sensor_id;sensor_type;location;lat;lon;timestamp;P1;durP1;ratioP1;P2;durP2;ratioP2
18610;SDS011;9435;52.122;5.502;2022-08-16T00:02:06;13.77;;;10.82;;
18610;SDS011;9435;52.122;5.502;2022-08-16T00:04:33;15.60;;;10.75;;
18610;SDS011;9435;52.122;5.502;2022-08-16T00:07:02;14.35;;;10.88;;
18610;SDS011;9435;52.122;5.502;2022-08-16T00:09:30;18.05;;;10.88;;
18610;SDS011;9435;52.122;5.502;2022-08-16T00:11:57;14.60;;;10.38;;
18610;SDS011;9435;52.122;5.502;2022-08-16T00:14:25;18.55;;;11.63;;
18610;SDS011;9435;52.122;5.502;2022-08-16T00:16:56;13.90;;;10.05;;
18610;SDS011;9435;52.122;5.502;2022-08-16T00:19:25;15.43;;;10.98;;
18610;SDS011;9435;52.122;5.502;2022-08-16T00:21:55;13.57;;;10.18;;
18610;SDS011;9435;52.122;5.502;2022-08-16T00:24:24;14.65;;;10.68;;
18610;SDS011;9435;52.122;5.502;2022-08-16T00:26:52;16.90;;;11.52;;
18610;SDS011;9435;52.122;5.502;2022-08-16T00:29:20;16.60;;;11.63;;
18610;SDS011;9435;52.122;5.502;2022-08-16T00:31:48;16.13;;;11.18;;
18610;SDS011;9435;52.122;5.502;2022-08-16T00:34:16;15.00;;;11.30;;
18610;SDS011;9435;52.122;5.502;2022-08-16T00:36:44;16.48;;;12.30;;
18610;SDS011;9435;52.122;5.502;2022-08-16T00:39:11;15.55;;;12.02;;
18610;SDS011;9435;52.122;5.502;2022-08-16T00:41:39;16.65;;;11.48;;
18610;SDS011;9435;52.122;5.502;2022-08-16T00:44:09;16.65;;;11.80;;
18610;SDS011;9435;52.122;5.502;2022-08-16T00:46:38;16.42;;;11.77;;
18610;SDS011;9435;52.122;5.502;2022-08-16T00:49:09;18.52;;;13.02;;
18610;SDS011;9435;52.122;5.502;2022-08-16T00:51:37;16.13;;;11.93;;
18610;SDS011;9435;52.122;5.502;2022-08-16T00:54:05;15.05;;;11.63;;
18610;SDS011;9435;52.122;5.502;2022-08-16T00:56:33;19.35;;;11.80;;
18610;SDS011;9435;52.122;5.502;2022-08-16T00:59:05;16.75;;;12.20;;
18610;SDS011;9435;52.122;5.502;2022-08-16T01:01:33;15.10;;;11.10;;
18610;SDS011;9435;52.122;5.502;2022-08-16T01:04:00;15.20;;;11.77;;
18610;SDS011;9435;52.122;5.502;2022-08-16T01:06:28;14.65;;;11.32;;
18610;SDS011;9435;52.122;5.502;2022-08-16T01:08:56;16.58;;;11.52;;
18610;SDS011;9435;52.122;5.502;2022-08-16T01:11:24;15.02;;;11.05;;
18610;SDS011;9435;52.122;5.502;2022-08-16T01:13:52;14.63;;;11.07;;
18610;SDS011;9435;52.122;5.502;2022-08-16T01:16:25;15.80;;;11.13;;
18610;SDS011;9435;52.122;5.502;2022-08-16T01:18:59;16.83;;;11.68;;
18610;SDS011;9435;52.122;5.502;2022-08-16T01:21:33;17.15;;;12.10;;
18610;SDS011;9435;52.122;5.502;2022-08-16T01:24:10;16.98;;;12.60;;
18610;SDS011;9435;52.122;5.502;2022-08-16T01:26:45;16.50;;;12.27;;
18610;SDS011;9435;52.122;5.502;2022-08-16T01:29:15;18.98;;;12.57;;
18610;SDS011;9435;52.122;5.502;2022-08-16T01:31:46;18.60;;;12.85;;
18610;SDS011;9435;52.122;5.502;2022-08-16T01:34:14;19.05;;;13.15;;
18610;SDS011;9435;52.122;5.502;2022-08-16T01:36:43;19.08;;;12.68;;
18610;SDS011;9435;52.122;5.502;2022-08-16T01:39:13;18.67;;;13.68;;
18610;SDS011;9435;52.122;5.502;2022-08-16T01:41:42;16.65;;;12.73;;
18610;SDS011;9435;52.122;5.502;2022-08-16T01:44:10;19.83;;;14.45;;
18610;SDS011;9435;52.122;5.502;2022-08-16T01:46:41;21.02;;;14.50;;
18610;SDS011;9435;52.122;5.502;2022-08-16T01:49:10;21.42;;;14.70;;
18610;SDS011;9435;52.122;5.502;2022-08-16T01:51:41;20.63;;;14.63;;
18610;SDS011;9435;52.122;5.502;2022-08-16T01:54:09;22.25;;;15.27;;
18610;SDS011;9435;52.122;5.502;2022-08-16T01:56:38;21.25;;;15.02;;
18610;SDS011;9435;52.122;5.502;2022-08-16T01:59:07;21.17;;;15.38;;
18610;SDS011;9435;52.122;5.502;2022-08-16T02:01:36;21.40;;;15.52;;
18610;SDS011;9435;52.122;5.502;2022-08-16T02:04:03;24.55;;;15.57;;
18610;SDS011;9435;52.122;5.502;2022-08-16T02:06:30;22.98;;;15.38;;
18610;SDS011;9435;52.122;5.502;2022-08-16T02:08:59;24.17;;;17.10;;
18610;SDS011;9435;52.122;5.502;2022-08-16T02:11:26;22.38;;;15.38;;
18610;SDS011;9435;52.122;5.502;2022-08-16T02:13:55;21.38;;;14.07;;
18610;SDS011;9435;52.122;5.502;2022-08-16T02:16:22;19.45;;;14.25;;
18610;SDS011;9435;52.122;5.502;2022-08-16T02:18:50;19.67;;;14.57;;
18610;SDS011;9435;52.122;5.502;2022-08-16T02:21:18;22.15;;;15.40;;
18610;SDS011;9435;52.122;5.502;2022-08-16T02:23:46;21.27;;;14.70;;
18610;SDS011;9435;52.122;5.502;2022-08-16T02:26:13;20.05;;;14.68;;
18610;SDS011;9435;52.122;5.502;2022-08-16T02:28:40;21.63;;;15.57;;
18610;SDS011;9435;52.122;5.502;2022-08-16T02:31:10;21.60;;;15.27;;
18610;SDS011;9435;52.122;5.502;2022-08-16T02:33:39;21.55;;;15.90;;
18610;SDS011;9435;52.122;5.502;2022-08-16T02:36:07;22.17;;;15.80;;
18610;SDS011;9435;52.122;5.502;2022-08-16T02:38:34;23.33;;;16.67;;
18610;SDS011;9435;52.122;5.502;2022-08-16T02:41:02;24.95;;;17.20;;
18610;SDS011;9435;52.122;5.502;2022-08-16T02:43:30;24.30;;;16.08;;
18610;SDS011;9435;52.122;5.502;2022-08-16T02:45:59;23.40;;;15.55;;
18610;SDS011;9435;52.122;5.502;2022-08-16T02:48:28;25.83;;;17.35;;
18610;SDS011;9435;52.122;5.502;2022-08-16T02:50:55;22.15;;;15.80;;
18610;SDS011;9435;52.122;5.502;2022-08-16T02:53:23;21.52;;;14.43;;
18610;SDS011;9435;52.122;5.502;2022-08-16T02:55:50;23.92;;;15.73;;
18610;SDS011;9435;52.122;5.502;2022-08-16T02:58:17;20.48;;;15.00;;
18610;SDS011;9435;52.122;5.502;2022-08-16T03:00:46;20.58;;;15.13;;
18610;SDS011;9435;52.122;5.502;2022-08-16T03:03:13;20.48;;;14.57;;
18610;SDS011;9435;52.122;5.502;2022-08-16T03:05:41;21.63;;;14.98;;
18610;SDS011;9435;52.122;5.502;2022-08-16T03:08:08;21.40;;;15.13;;
18610;SDS011;9435;52.122;5.502;2022-08-16T03:10:35;23.58;;;15.45;;
18610;SDS011;9435;52.122;5.502;2022-08-16T03:13:02;21.92;;;15.77;;
18610;SDS011;9435;52.122;5.502;2022-08-16T03:15:30;21.38;;;15.70;;
18610;SDS011;9435;52.122;5.502;2022-08-16T03:17:57;21.52;;;15.30;;
18610;SDS011;9435;52.122;5.502;2022-08-16T03:20:24;20.38;;;14.00;;
18610;SDS011;9435;52.122;5.502;2022-08-16T03:22:53;15.75;;;11.73;;
18610;SDS011;9435;52.122;5.502;2022-08-16T03:25:20;14.82;;;11.50;;
18610;SDS011;9435;52.122;5.502;2022-08-16T03:27:47;15.30;;;11.60;;
18610;SDS011;9435;52.122;5.502;2022-08-16T03:30:15;21.35;;;12.00;;
18610;SDS011;9435;52.122;5.502;2022-08-16T03:32:45;20.38;;;13.85;;
18610;SDS011;9435;52.122;5.502;2022-08-16T03:35:14;19.58;;;14.35;;
18610;SDS011;9435;52.122;5.502;2022-08-16T03:37:41;19.63;;;14.38;;
18610;SDS011;9435;52.122;5.502;2022-08-16T03:40:12;21.63;;;14.05;;
18610;SDS011;9435;52.122;5.502;2022-08-16T03:42:39;18.02;;;13.20;;
18610;SDS011;9435;52.122;5.502;2022-08-16T03:45:07;20.15;;;14.55;;
18610;SDS011;9435;52.122;5.502;2022-08-16T03:47:34;19.75;;;14.27;;
18610;SDS011;9435;52.122;5.502;2022-08-16T03:50:01;17.88;;;13.10;;
18610;SDS011;9435;52.122;5.502;2022-08-16T03:52:30;18.67;;;13.27;;
18610;SDS011;9435;52.122;5.502;2022-08-16T03:54:57;16.98;;;13.00;;
18610;SDS011;9435;52.122;5.502;2022-08-16T03:57:26;16.90;;;12.32;;
18610;SDS011;9435;52.122;5.502;2022-08-16T03:59:53;19.95;;;13.93;;
18610;SDS011;9435;52.122;5.502;2022-08-16T04:02:20;21.98;;;15.07;;
18610;SDS011;9435;52.122;5.502;2022-08-16T04:04:47;19.08;;;14.02;;
18610;SDS011;9435;52.122;5.502;2022-08-16T04:07:14;20.02;;;14.40;;
18610;SDS011;9435;52.122;5.502;2022-08-16T04:09:42;17.83;;;13.70;;
18610;SDS011;9435;52.122;5.502;2022-08-16T04:12:10;16.85;;;13.10;;
18610;SDS011;9435;52.122;5.502;2022-08-16T04:14:38;18.75;;;12.75;;
18610;SDS011;9435;52.122;5.502;2022-08-16T04:17:05;15.20;;;11.25;;
18610;SDS011;9435;52.122;5.502;2022-08-16T04:19:33;18.38;;;13.10;;
18610;SDS011;9435;52.122;5.502;2022-08-16T04:22:00;22.77;;;14.80;;
18610;SDS011;9435;52.122;5.502;2022-08-16T04:24:27;20.35;;;13.80;;
18610;SDS011;9435;52.122;5.502;2022-08-16T04:26:53;22.48;;;14.27;;
18610;SDS011;9435;52.122;5.502;2022-08-16T04:29:21;20.77;;;14.88;;
18610;SDS011;9435;52.122;5.502;2022-08-16T04:31:50;24.90;;;16.50;;
18610;SDS011;9435;52.122;5.502;2022-08-16T04:34:17;24.92;;;16.92;;
18610;SDS011;9435;52.122;5.502;2022-08-16T04:36:45;25.48;;;17.42;;
18610;SDS011;9435;52.122;5.502;2022-08-16T04:39:13;26.63;;;18.30;;
18610;SDS011;9435;52.122;5.502;2022-08-16T04:41:40;30.50;;;18.73;;
18610;SDS011;9435;52.122;5.502;2022-08-16T04:44:07;28.52;;;19.25;;
18610;SDS011;9435;52.122;5.502;2022-08-16T04:46:34;27.27;;;18.70;;
18610;SDS011;9435;52.122;5.502;2022-08-16T04:49:02;34.05;;;20.45;;
18610;SDS011;9435;52.122;5.502;2022-08-16T04:51:30;32.67;;;20.75;;
18610;SDS011;9435;52.122;5.502;2022-08-16T04:53:57;28.08;;;19.23;;
18610;SDS011;9435;52.122;5.502;2022-08-16T04:56:24;30.85;;;19.58;;
18610;SDS011;9435;52.122;5.502;2022-08-16T04:58:51;28.35;;;19.15;;
18610;SDS011;9435;52.122;5.502;2022-08-16T05:01:18;26.52;;;18.98;;
18610;SDS011;9435;52.122;5.502;2022-08-16T05:03:45;30.55;;;19.15;;
18610;SDS011;9435;52.122;5.502;2022-08-16T05:06:14;30.90;;;20.33;;
18610;SDS011;9435;52.122;5.502;2022-08-16T05:08:41;33.13;;;20.15;;
18610;SDS011;9435;52.122;5.502;2022-08-16T05:11:09;30.52;;;18.90;;
18610;SDS011;9435;52.122;5.502;2022-08-16T05:13:38;29.73;;;19.38;;
18610;SDS011;9435;52.122;5.502;2022-08-16T05:16:09;25.80;;;18.20;;
18610;SDS011;9435;52.122;5.502;2022-08-16T05:18:38;30.35;;;19.45;;
18610;SDS011;9435;52.122;5.502;2022-08-16T05:21:05;31.92;;;20.38;;
18610;SDS011;9435;52.122;5.502;2022-08-16T05:23:33;28.52;;;19.27;;
18610;SDS011;9435;52.122;5.502;2022-08-16T05:26:00;29.40;;;19.58;;
18610;SDS011;9435;52.122;5.502;2022-08-16T05:28:27;32.00;;;20.45;;
18610;SDS011;9435;52.122;5.502;2022-08-16T05:30:54;37.65;;;23.52;;
18610;SDS011;9435;52.122;5.502;2022-08-16T05:33:21;32.38;;;20.88;;
18610;SDS011;9435;52.122;5.502;2022-08-16T05:35:50;33.28;;;20.92;;
18610;SDS011;9435;52.122;5.502;2022-08-16T05:38:17;29.75;;;20.73;;
18610;SDS011;9435;52.122;5.502;2022-08-16T05:40:52;32.00;;;21.48;;
18610;SDS011;9435;52.122;5.502;2022-08-16T05:43:19;29.95;;;20.58;;
18610;SDS011;9435;52.122;5.502;2022-08-16T05:45:46;29.95;;;21.08;;
18610;SDS011;9435;52.122;5.502;2022-08-16T05:48:14;30.67;;;20.90;;
18610;SDS011;9435;52.122;5.502;2022-08-16T05:50:41;32.88;;;21.95;;
18610;SDS011;9435;52.122;5.502;2022-08-16T05:53:08;30.65;;;20.95;;
18610;SDS011;9435;52.122;5.502;2022-08-16T05:55:35;33.00;;;21.92;;
18610;SDS011;9435;52.122;5.502;2022-08-16T05:58:03;35.45;;;21.65;;
18610;SDS011;9435;52.122;5.502;2022-08-16T06:00:30;33.13;;;22.15;;
18610;SDS011;9435;52.122;5.502;2022-08-16T06:02:57;35.42;;;22.38;;
18610;SDS011;9435;52.122;5.502;2022-08-16T06:05:24;33.42;;;22.05;;
18610;SDS011;9435;52.122;5.502;2022-08-16T06:07:51;34.22;;;22.77;;
18610;SDS011;9435;52.122;5.502;2022-08-16T06:10:18;32.22;;;22.33;;
18610;SDS011;9435;52.122;5.502;2022-08-16T06:12:45;33.17;;;22.50;;
18610;SDS011;9435;52.122;5.502;2022-08-16T06:15:15;33.85;;;22.75;;
18610;SDS011;9435;52.122;5.502;2022-08-16T06:17:44;35.72;;;22.95;;
18610;SDS011;9435;52.122;5.502;2022-08-16T06:20:13;35.80;;;22.88;;
18610;SDS011;9435;52.122;5.502;2022-08-16T06:22:41;34.53;;;22.33;;
18610;SDS011;9435;52.122;5.502;2022-08-16T06:25:09;33.85;;;23.13;;
18610;SDS011;9435;52.122;5.502;2022-08-16T06:27:36;34.35;;;23.08;;
18610;SDS011;9435;52.122;5.502;2022-08-16T06:30:04;36.40;;;22.55;;
18610;SDS011;9435;52.122;5.502;2022-08-16T06:32:33;37.45;;;23.30;;
18610;SDS011;9435;52.122;5.502;2022-08-16T06:35:00;32.53;;;22.55;;
18610;SDS011;9435;52.122;5.502;2022-08-16T06:37:27;36.90;;;23.95;;
18610;SDS011;9435;52.122;5.502;2022-08-16T06:39:54;34.38;;;22.83;;
18610;SDS011;9435;52.122;5.502;2022-08-16T06:42:21;33.80;;;22.38;;
18610;SDS011;9435;52.122;5.502;2022-08-16T06:44:48;32.28;;;22.70;;
18610;SDS011;9435;52.122;5.502;2022-08-16T06:47:15;36.15;;;23.95;;
18610;SDS011;9435;52.122;5.502;2022-08-16T06:49:44;33.08;;;22.30;;
18610;SDS011;9435;52.122;5.502;2022-08-16T06:52:11;30.50;;;21.25;;
18610;SDS011;9435;52.122;5.502;2022-08-16T06:54:38;31.40;;;22.17;;
18610;SDS011;9435;52.122;5.502;2022-08-16T06:57:05;33.75;;;22.42;;
18610;SDS011;9435;52.122;5.502;2022-08-16T06:59:31;34.72;;;22.38;;
18610;SDS011;9435;52.122;5.502;2022-08-16T07:01:58;33.03;;;21.83;;
18610;SDS011;9435;52.122;5.502;2022-08-16T07:04:26;37.83;;;22.90;;
18610;SDS011;9435;52.122;5.502;2022-08-16T07:06:54;31.42;;;21.48;;
18610;SDS011;9435;52.122;5.502;2022-08-16T07:09:21;34.42;;;23.55;;
18610;SDS011;9435;52.122;5.502;2022-08-16T07:11:48;34.78;;;22.98;;
18610;SDS011;9435;52.122;5.502;2022-08-16T07:14:15;35.08;;;24.38;;
18610;SDS011;9435;52.122;5.502;2022-08-16T07:16:42;31.30;;;22.45;;
18610;SDS011;9435;52.122;5.502;2022-08-16T07:19:09;33.58;;;23.27;;
18610;SDS011;9435;52.122;5.502;2022-08-16T07:21:36;33.72;;;24.05;;
18610;SDS011;9435;52.122;5.502;2022-08-16T07:24:07;29.85;;;21.55;;
18610;SDS011;9435;52.122;5.502;2022-08-16T07:26:34;37.85;;;24.55;;
18610;SDS011;9435;52.122;5.502;2022-08-16T07:29:00;30.33;;;21.73;;
18610;SDS011;9435;52.122;5.502;2022-08-16T07:31:27;33.30;;;22.45;;
18610;SDS011;9435;52.122;5.502;2022-08-16T07:33:55;29.52;;;21.60;;
18610;SDS011;9435;52.122;5.502;2022-08-16T07:36:22;34.00;;;22.83;;
18610;SDS011;9435;52.122;5.502;2022-08-16T07:38:49;28.83;;;21.23;;
18610;SDS011;9435;52.122;5.502;2022-08-16T07:41:18;29.13;;;19.48;;
18610;SDS011;9435;52.122;5.502;2022-08-16T07:43:45;28.88;;;19.15;;
18610;SDS011;9435;52.122;5.502;2022-08-16T07:46:11;28.65;;;19.70;;
18610;SDS011;9435;52.122;5.502;2022-08-16T07:48:38;31.80;;;20.65;;
18610;SDS011;9435;52.122;5.502;2022-08-16T07:51:05;24.88;;;17.70;;
18610;SDS011;9435;52.122;5.502;2022-08-16T07:53:32;25.83;;;17.85;;
18610;SDS011;9435;52.122;5.502;2022-08-16T07:55:59;22.05;;;15.43;;
18610;SDS011;9435;52.122;5.502;2022-08-16T07:58:28;22.00;;;14.57;;
18610;SDS011;9435;52.122;5.502;2022-08-16T08:00:55;27.02;;;17.45;;
18610;SDS011;9435;52.122;5.502;2022-08-16T08:03:23;25.35;;;17.85;;
18610;SDS011;9435;52.122;5.502;2022-08-16T08:05:50;19.65;;;14.45;;
18610;SDS011;9435;52.122;5.502;2022-08-16T08:08:17;24.50;;;16.08;;
18610;SDS011;9435;52.122;5.502;2022-08-16T08:10:43;18.75;;;14.18;;
18610;SDS011;9435;52.122;5.502;2022-08-16T08:13:10;22.05;;;15.60;;
18610;SDS011;9435;52.122;5.502;2022-08-16T08:15:40;23.27;;;16.40;;
18610;SDS011;9435;52.122;5.502;2022-08-16T08:18:09;21.55;;;16.08;;
18610;SDS011;9435;52.122;5.502;2022-08-16T08:20:37;23.50;;;18.42;;
18610;SDS011;9435;52.122;5.502;2022-08-16T08:23:07;19.63;;;14.35;;
18610;SDS011;9435;52.122;5.502;2022-08-16T08:25:35;25.02;;;17.02;;
18610;SDS011;9435;52.122;5.502;2022-08-16T08:28:02;26.35;;;18.77;;
18610;SDS011;9435;52.122;5.502;2022-08-16T08:30:29;21.60;;;15.93;;
18610;SDS011;9435;52.122;5.502;2022-08-16T08:32:57;23.65;;;15.20;;
18610;SDS011;9435;52.122;5.502;2022-08-16T08:35:25;23.80;;;16.45;;
18610;SDS011;9435;52.122;5.502;2022-08-16T08:37:52;21.85;;;16.25;;
18610;SDS011;9435;52.122;5.502;2022-08-16T08:40:19;20.13;;;14.82;;
18610;SDS011;9435;52.122;5.502;2022-08-16T08:42:47;17.50;;;13.30;;
18610;SDS011;9435;52.122;5.502;2022-08-16T08:45:15;20.60;;;15.18;;
18610;SDS011;9435;52.122;5.502;2022-08-16T08:47:42;20.23;;;13.95;;
18610;SDS011;9435;52.122;5.502;2022-08-16T08:50:12;22.08;;;15.85;;
18610;SDS011;9435;52.122;5.502;2022-08-16T08:52:41;21.40;;;15.73;;
18610;SDS011;9435;52.122;5.502;2022-08-16T08:55:09;23.45;;;14.98;;
18610;SDS011;9435;52.122;5.502;2022-08-16T08:57:38;21.45;;;14.48;;
18610;SDS011;9435;52.122;5.502;2022-08-16T09:00:06;24.15;;;16.42;;
18610;SDS011;9435;52.122;5.502;2022-08-16T09:02:34;21.95;;;15.10;;
18610;SDS011;9435;52.122;5.502;2022-08-16T09:05:01;21.38;;;16.45;;
18610;SDS011;9435;52.122;5.502;2022-08-16T09:07:29;20.05;;;14.30;;
18610;SDS011;9435;52.122;5.502;2022-08-16T09:09:56;20.27;;;15.13;;
18610;SDS011;9435;52.122;5.502;2022-08-16T09:12:24;23.67;;;16.00;;
18610;SDS011;9435;52.122;5.502;2022-08-16T09:14:51;21.70;;;15.02;;
18610;SDS011;9435;52.122;5.502;2022-08-16T09:17:18;27.00;;;17.75;;
18610;SDS011;9435;52.122;5.502;2022-08-16T09:19:45;19.30;;;13.23;;
18610;SDS011;9435;52.122;5.502;2022-08-16T09:22:12;16.65;;;12.27;;
18610;SDS011;9435;52.122;5.502;2022-08-16T09:24:40;27.50;;;17.73;;
18610;SDS011;9435;52.122;5.502;2022-08-16T09:27:07;22.25;;;14.75;;
18610;SDS011;9435;52.122;5.502;2022-08-16T09:29:34;24.98;;;16.90;;
18610;SDS011;9435;52.122;5.502;2022-08-16T09:32:01;29.05;;;18.00;;
18610;SDS011;9435;52.122;5.502;2022-08-16T09:34:29;22.13;;;15.50;;
18610;SDS011;9435;52.122;5.502;2022-08-16T09:36:57;21.00;;;15.52;;
18610;SDS011;9435;52.122;5.502;2022-08-16T09:39:24;21.95;;;15.68;;
18610;SDS011;9435;52.122;5.502;2022-08-16T09:41:53;21.73;;;16.17;;
18610;SDS011;9435;52.122;5.502;2022-08-16T09:44:23;21.02;;;13.30;;
18610;SDS011;9435;52.122;5.502;2022-08-16T09:46:51;23.67;;;17.08;;
18610;SDS011;9435;52.122;5.502;2022-08-16T09:49:18;21.83;;;16.02;;
18610;SDS011;9435;52.122;5.502;2022-08-16T09:51:45;20.65;;;16.00;;
18610;SDS011;9435;52.122;5.502;2022-08-16T09:54:16;19.33;;;13.90;;
18610;SDS011;9435;52.122;5.502;2022-08-16T09:56:43;26.02;;;17.98;;
18610;SDS011;9435;52.122;5.502;2022-08-16T09:59:12;18.10;;;13.65;;
18610;SDS011;9435;52.122;5.502;2022-08-16T10:01:40;24.90;;;17.52;;
18610;SDS011;9435;52.122;5.502;2022-08-16T10:04:08;24.00;;;17.48;;
18610;SDS011;9435;52.122;5.502;2022-08-16T10:06:36;20.63;;;15.73;;
18610;SDS011;9435;52.122;5.502;2022-08-16T10:09:04;18.10;;;13.68;;
18610;SDS011;9435;52.122;5.502;2022-08-16T10:11:32;20.15;;;13.77;;
18610;SDS011;9435;52.122;5.502;2022-08-16T10:14:18;20.23;;;12.80;;
18610;SDS011;9435;52.122;5.502;2022-08-16T10:16:45;19.55;;;13.52;;
18610;SDS011;9435;52.122;5.502;2022-08-16T10:19:13;19.45;;;13.30;;
18610;SDS011;9435;52.122;5.502;2022-08-16T10:21:40;21.92;;;14.65;;
18610;SDS011;9435;52.122;5.502;2022-08-16T10:24:08;20.63;;;14.23;;
18610;SDS011;9435;52.122;5.502;2022-08-16T10:26:35;19.83;;;13.98;;
18610;SDS011;9435;52.122;5.502;2022-08-16T10:29:03;16.85;;;12.63;;
18610;SDS011;9435;52.122;5.502;2022-08-16T10:31:32;21.95;;;14.68;;
18610;SDS011;9435;52.122;5.502;2022-08-16T10:33:59;14.95;;;11.05;;
18610;SDS011;9435;52.122;5.502;2022-08-16T10:36:26;14.57;;;10.77;;
18610;SDS011;9435;52.122;5.502;2022-08-16T10:38:53;14.98;;;10.98;;
18610;SDS011;9435;52.122;5.502;2022-08-16T10:41:20;14.90;;;10.77;;
18610;SDS011;9435;52.122;5.502;2022-08-16T10:43:48;16.83;;;13.40;;
18610;SDS011;9435;52.122;5.502;2022-08-16T10:46:16;14.20;;;9.40;;
18610;SDS011;9435;52.122;5.502;2022-08-16T10:48:45;16.92;;;11.73;;
18610;SDS011;9435;52.122;5.502;2022-08-16T10:51:12;15.73;;;11.68;;
18610;SDS011;9435;52.122;5.502;2022-08-16T10:53:38;20.08;;;13.80;;
18610;SDS011;9435;52.122;5.502;2022-08-16T10:56:06;13.70;;;10.88;;
18610;SDS011;9435;52.122;5.502;2022-08-16T10:58:35;16.92;;;11.38;;
18610;SDS011;9435;52.122;5.502;2022-08-16T11:01:05;16.35;;;10.85;;
18610;SDS011;9435;52.122;5.502;2022-08-16T11:03:33;12.82;;;9.93;;
18610;SDS011;9435;52.122;5.502;2022-08-16T11:06:02;23.67;;;12.52;;
18610;SDS011;9435;52.122;5.502;2022-08-16T11:08:31;14.65;;;10.05;;
18610;SDS011;9435;52.122;5.502;2022-08-16T11:10:59;16.60;;;11.73;;
18610;SDS011;9435;52.122;5.502;2022-08-16T11:13:26;16.67;;;13.13;;
18610;SDS011;9435;52.122;5.502;2022-08-16T11:15:53;15.73;;;11.18;;
18610;SDS011;9435;52.122;5.502;2022-08-16T11:18:21;14.95;;;11.57;;
18610;SDS011;9435;52.122;5.502;2022-08-16T11:20:49;18.48;;;11.80;;
18610;SDS011;9435;52.122;5.502;2022-08-16T11:23:17;14.40;;;9.27;;
18610;SDS011;9435;52.122;5.502;2022-08-16T11:25:44;14.23;;;11.18;;
18610;SDS011;9435;52.122;5.502;2022-08-16T11:28:11;15.60;;;11.82;;
18610;SDS011;9435;52.122;5.502;2022-08-16T11:30:40;15.68;;;10.70;;
18610;SDS011;9435;52.122;5.502;2022-08-16T11:33:08;17.55;;;12.38;;
18610;SDS011;9435;52.122;5.502;2022-08-16T11:35:35;18.70;;;12.43;;
18610;SDS011;9435;52.122;5.502;2022-08-16T11:38:07;13.23;;;10.25;;
18610;SDS011;9435;52.122;5.502;2022-08-16T11:40:38;19.33;;;13.68;;
18610;SDS011;9435;52.122;5.502;2022-08-16T11:43:11;19.05;;;13.27;;
18610;SDS011;9435;52.122;5.502;2022-08-16T11:45:38;18.60;;;12.02;;
18610;SDS011;9435;52.122;5.502;2022-08-16T11:48:05;14.65;;;10.30;;
18610;SDS011;9435;52.122;5.502;2022-08-16T11:50:33;15.35;;;12.27;;
18610;SDS011;9435;52.122;5.502;2022-08-16T11:53:01;15.10;;;9.77;;
18610;SDS011;9435;52.122;5.502;2022-08-16T11:55:30;17.90;;;11.43;;
18610;SDS011;9435;52.122;5.502;2022-08-16T11:57:59;16.05;;;11.80;;
18610;SDS011;9435;52.122;5.502;2022-08-16T12:00:27;22.75;;;14.48;;
18610;SDS011;9435;52.122;5.502;2022-08-16T12:02:55;18.88;;;13.05;;
18610;SDS011;9435;52.122;5.502;2022-08-16T12:05:23;22.00;;;14.65;;
18610;SDS011;9435;52.122;5.502;2022-08-16T12:07:51;16.98;;;12.13;;
18610;SDS011;9435;52.122;5.502;2022-08-16T12:10:19;16.67;;;12.93;;
18610;SDS011;9435;52.122;5.502;2022-08-16T12:12:48;16.92;;;12.38;;
18610;SDS011;9435;52.122;5.502;2022-08-16T12:15:17;20.33;;;12.80;;
18610;SDS011;9435;52.122;5.502;2022-08-16T12:17:46;14.30;;;10.80;;
18610;SDS011;9435;52.122;5.502;2022-08-16T12:20:15;14.30;;;9.73;;
18610;SDS011;9435;52.122;5.502;2022-08-16T12:22:43;12.63;;;10.48;;
18610;SDS011;9435;52.122;5.502;2022-08-16T12:25:12;15.35;;;12.02;;
18610;SDS011;9435;52.122;5.502;2022-08-16T12:27:41;15.85;;;13.50;;
18610;SDS011;9435;52.122;5.502;2022-08-16T12:30:11;15.55;;;9.98;;
18610;SDS011;9435;52.122;5.502;2022-08-16T12:32:41;17.42;;;11.40;;
18610;SDS011;9435;52.122;5.502;2022-08-16T12:35:10;13.25;;;10.50;;
18610;SDS011;9435;52.122;5.502;2022-08-16T12:37:39;14.40;;;8.57;;
18610;SDS011;9435;52.122;5.502;2022-08-16T12:40:08;14.40;;;9.05;;
18610;SDS011;9435;52.122;5.502;2022-08-16T12:42:38;12.48;;;7.78;;
18610;SDS011;9435;52.122;5.502;2022-08-16T12:45:08;15.27;;;9.95;;
18610;SDS011;9435;52.122;5.502;2022-08-16T12:47:38;12.73;;;9.15;;
18610;SDS011;9435;52.122;5.502;2022-08-16T12:50:24;12.02;;;9.25;;
18610;SDS011;9435;52.122;5.502;2022-08-16T12:52:51;11.70;;;8.43;;
18610;SDS011;9435;52.122;5.502;2022-08-16T12:55:19;13.27;;;10.55;;
18610;SDS011;9435;52.122;5.502;2022-08-16T12:57:47;13.90;;;10.38;;
18610;SDS011;9435;52.122;5.502;2022-08-16T13:00:15;15.32;;;10.52;;
18610;SDS011;9435;52.122;5.502;2022-08-16T13:02:43;15.32;;;10.23;;
18610;SDS011;9435;52.122;5.502;2022-08-16T13:05:11;16.67;;;10.40;;
18610;SDS011;9435;52.122;5.502;2022-08-16T13:07:41;16.40;;;10.43;;
18610;SDS011;9435;52.122;5.502;2022-08-16T13:10:10;16.88;;;11.25;;
18610;SDS011;9435;52.122;5.502;2022-08-16T13:12:39;17.35;;;12.30;;
18610;SDS011;9435;52.122;5.502;2022-08-16T13:15:09;18.90;;;13.10;;
18610;SDS011;9435;52.122;5.502;2022-08-16T13:17:40;17.52;;;11.98;;
18610;SDS011;9435;52.122;5.502;2022-08-16T13:20:08;19.17;;;13.27;;
18610;SDS011;9435;52.122;5.502;2022-08-16T13:22:40;20.15;;;13.82;;
18610;SDS011;9435;52.122;5.502;2022-08-16T13:25:11;17.50;;;12.77;;
18610;SDS011;9435;52.122;5.502;2022-08-16T13:27:40;15.35;;;10.32;;
18610;SDS011;9435;52.122;5.502;2022-08-16T13:30:07;15.98;;;12.55;;
18610;SDS011;9435;52.122;5.502;2022-08-16T13:32:35;18.33;;;12.55;;
18610;SDS011;9435;52.122;5.502;2022-08-16T13:35:02;20.23;;;13.82;;
18610;SDS011;9435;52.122;5.502;2022-08-16T13:37:29;17.15;;;12.82;;
18610;SDS011;9435;52.122;5.502;2022-08-16T13:39:58;28.35;;;17.45;;
18610;SDS011;9435;52.122;5.502;2022-08-16T13:42:25;21.85;;;15.82;;
18610;SDS011;9435;52.122;5.502;2022-08-16T13:44:52;21.70;;;15.57;;
18610;SDS011;9435;52.122;5.502;2022-08-16T13:47:19;24.23;;;17.92;;
18610;SDS011;9435;52.122;5.502;2022-08-16T13:49:46;19.25;;;15.25;;
18610;SDS011;9435;52.122;5.502;2022-08-16T13:52:13;21.58;;;15.73;;
18610;SDS011;9435;52.122;5.502;2022-08-16T13:54:40;26.48;;;19.88;;
18610;SDS011;9435;52.122;5.502;2022-08-16T13:57:08;20.42;;;16.08;;
18610;SDS011;9435;52.122;5.502;2022-08-16T13:59:35;27.23;;;18.02;;
18610;SDS011;9435;52.122;5.502;2022-08-16T14:02:04;21.27;;;14.60;;
18610;SDS011;9435;52.122;5.502;2022-08-16T14:04:33;14.73;;;11.52;;
18610;SDS011;9435;52.122;5.502;2022-08-16T14:07:02;20.05;;;15.43;;
18610;SDS011;9435;52.122;5.502;2022-08-16T14:09:32;13.85;;;11.25;;
18610;SDS011;9435;52.122;5.502;2022-08-16T14:12:02;19.25;;;14.82;;
18610;SDS011;9435;52.122;5.502;2022-08-16T14:14:31;19.13;;;14.95;;
18610;SDS011;9435;52.122;5.502;2022-08-16T14:16:59;22.95;;;16.20;;
18610;SDS011;9435;52.122;5.502;2022-08-16T14:19:27;20.55;;;15.90;;
18610;SDS011;9435;52.122;5.502;2022-08-16T14:21:55;18.50;;;14.35;;
18610;SDS011;9435;52.122;5.502;2022-08-16T14:24:23;19.65;;;15.13;;
18610;SDS011;9435;52.122;5.502;2022-08-16T14:26:50;19.40;;;12.65;;
18610;SDS011;9435;52.122;5.502;2022-08-16T14:29:18;16.23;;;10.63;;
18610;SDS011;9435;52.122;5.502;2022-08-16T14:31:47;14.60;;;8.40;;
18610;SDS011;9435;52.122;5.502;2022-08-16T14:34:14;12.95;;;8.48;;
18610;SDS011;9435;52.122;5.502;2022-08-16T14:36:41;12.05;;;9.30;;
18610;SDS011;9435;52.122;5.502;2022-08-16T14:39:08;16.77;;;8.48;;
18610;SDS011;9435;52.122;5.502;2022-08-16T14:41:36;12.02;;;8.90;;